To NAV CANADA Home Page Login to a new session Search on AWWS site Feedback and Comments Disclaimer Vers la page française équivalente Tips FAQ What's new on the site To the Forecasts and Observations / NOTAM section To "File a Flight Plan" website Publications and other links Update of the User's profile FIC Telephone Numbers My Weather Data Folder Route Weather Data Regional Weather Data Local Weather Data To the Forecasts and Observations / NOTAM section
Request Generated 01/21/2017 at 02:05:04 UTC . Weather information available at that time is displayed.

METAR/TAF

MOOSE JAW/AIR VICE MARSHAL C.M. MCEWEN/SK    

SPECI CYMJ 202331Z 27002KT 15SM FEW130 SCT220 BKN260 02/M02 A2932 RMK AC1CI3CI3 LAST OBS/NEXT 231100 UTC SLP949=
METAR CYMJ 202300Z 29004KT 15SM FEW130 SCT220 BKN260 03/M02 A2932 RMK AC1CI3CI3 SLP949=

TAF AMD CYMJ 202333Z 2100/2112 FCST CNCLD DUE END OF FLYING PROGRAM
RMK NXT FCST WILL BE ISSUED AT 231215Z=
Your time UTC time
Weather data provided by Environment Canada and NAV CANADA